Impacts TAF Board INFO
FOR SITUATIONAL AWARENESS. NOT TO BE USED FOR FLIGHT PLANNING PURPOSES.
IDs:

KPHL - Philadelphia Intl, PA, US

Issued at 1926 UTC 17 Jul 2018
Updated at 1937 UTC 17 Jul 2018
Potential Impact None Slight Moderate High
Time<<18/20Z 18/21Z 18/22Z 18/23Z 19/00Z 19/01Z 19/02Z 19/03Z 19/04Z 19/05Z 19/06Z 19/07Z 19/08Z
Type PRVL PRVL PRVL PRVL
VIS >6 >6 >6 >6
CIG -- -- -- --
Cover SKC SKC SKC SKC
FltCat VFR VFR VFR VFR
WX -- -- -- --
WDir 330 330 330 330
WSpd 10 10 10 10
WGst -- -- -- --

Raw TAF
KPHL 171926Z 1719/1824 32012G28KT P6SM -SHRA SCT040 BKN120
  TEMPO 1719/1723 3SM TSRA BKN040CB
  FM172300 23005KT P6SM VCSH BKN050
  TEMPO 1723/1801 4SM SHRA BKN035
  FM180100 25005KT 6SM HZ VCSH BKN050
  FM180300 36006KT P6SM SCT050
  FM181200 33010KT P6SM SKC


METAR Board
Radar Display
Forecast Discussion

FOR SITUATIONAL AWARENESS. NOT TO BE USED FOR FLIGHT PLANNING PURPOSES.